Ellenburg Depot, New York
Current Conditions -  °F | °C
As of 3:53 PM on Saturday 22 Nov 2014 (Local Time) from KPBG Reporting Station
Overcast Overcast  
Wind Chill: 25°   Ceiling: 3900
Heat Index: 34°   Visibility: 10mi
Dew Point: 15°   Wind: 12mph
Humidity: 46%   Direction: 180°S
Pressure: 29.92"   Gusts: 21mph
Location:  44.91°N, 73.8°W
Report Text: KPBG 222053Z AUTO 18010G18KT 10SM OVC039 01/M09 A2992 RMK AO2 SLP137 T00111094 56034
Loading
Personal Weather Stations






























Interactive Weather Map New forecast layout! Learn more

10-Day Weather Forecast

Advertisements
Track Severe Weather on mobile